Time;durP1;ratioP1;P1;durP2;ratioP2;P2;SDS_P1;SDS_P2;PMS_P1;PMS_P2;Temp;Humidity;BMP_temperature;BMP_pressure;BME280_temperature;BME280_humidity;BME280_pressure;Samples;Min_cycle;Max_cycle;Signal;HPM_P1;HPM_P2
2022/04/27 00:01:29;;;;;;;14.40;9.20;;;9.20;99.90;;;;;;4883046;29;20220;-73
2022/04/27 00:03:56;;;;;;;12.40;8.37;;;9.20;99.90;;;;;;4888615;29;20231;-71
2022/04/27 00:06:23;;;;;;;13.83;8.70;;;9.00;99.90;;;;;;4887789;29;20894;-71
2022/04/27 00:08:49;;;;;;;13.83;9.07;;;8.90;99.90;;;;;;4884713;29;20229;-75
2022/04/27 00:11:16;;;;;;;15.97;9.93;;;8.80;99.90;;;;;;4892632;29;20243;-71
2022/04/27 00:13:43;;;;;;;15.70;9.33;;;8.70;99.90;;;;;;4892734;29;20204;-71
2022/04/27 00:16:09;;;;;;;15.30;9.90;;;8.70;99.90;;;;;;4890510;29;20206;-73
2022/04/27 00:18:36;;;;;;;17.57;10.33;;;8.90;99.90;;;;;;4888920;29;20465;-71
2022/04/27 00:21:03;;;;;;;16.20;9.87;;;8.80;99.90;;;;;;4886991;29;20226;-71
2022/04/27 00:23:32;;;;;;;14.37;9.17;;;8.60;99.90;;;;;;4908540;29;20307;-75
2022/04/27 00:25:59;;;;;;;13.87;8.73;;;8.40;99.90;;;;;;4893504;29;20207;-75
2022/04/27 00:28:26;;;;;;;15.43;8.77;;;8.20;99.90;;;;;;4892604;29;20201;-71
2022/04/27 00:30:53;;;;;;;14.57;9.40;;;8.10;99.90;;;;;;4882984;29;20333;-72
2022/04/27 00:33:19;;;;;;;15.47;9.63;;;8.00;99.90;;;;;;4886096;29;20582;-74
2022/04/27 00:35:46;;;;;;;15.33;9.77;;;7.90;99.90;;;;;;4889153;29;20208;-73
2022/04/27 00:38:13;;;;;;;15.80;10.00;;;7.80;99.90;;;;;;4887066;29;20259;-71
2022/04/27 00:40:39;;;;;;;14.40;9.30;;;7.80;99.90;;;;;;4888089;29;20271;-72
2022/04/27 00:43:06;;;;;;;17.83;9.90;;;7.70;99.90;;;;;;4890626;29;20223;-71
2022/04/27 00:45:33;;;;;;;17.90;9.87;;;7.70;99.90;;;;;;4893622;29;20251;-72
2022/04/27 00:48:00;;;;;;;18.23;10.67;;;7.70;99.90;;;;;;4893534;29;20292;-72
2022/04/27 00:50:28;;;;;;;18.37;11.63;;;7.70;99.90;;;;;;4887948;29;20596;-71
2022/04/27 00:52:55;;;;;;;18.27;11.10;;;7.70;99.90;;;;;;4886570;29;20687;-73
2022/04/27 00:55:22;;;;;;;17.53;10.13;;;7.90;99.90;;;;;;4889485;29;20281;-71
2022/04/27 00:57:48;;;;;;;19.13;10.53;;;7.80;99.90;;;;;;4890092;29;20204;-72
2022/04/27 01:00:16;;;;;;;18.37;9.97;;;7.60;99.90;;;;;;4889698;29;20231;-72
2022/04/27 01:02:42;;;;;;;17.47;11.17;;;7.50;99.90;;;;;;4885227;29;20227;-72
2022/04/27 01:05:11;;;;;;;19.90;11.63;;;7.40;99.90;;;;;;4890601;29;20202;-72
2022/04/27 01:07:39;;;;;;;18.87;11.00;;;7.20;99.90;;;;;;4885435;29;20210;-71
2022/04/27 01:10:07;;;;;;;19.10;11.40;;;7.20;99.90;;;;;;4890384;29;20594;-71
2022/04/27 01:12:35;;;;;;;19.53;11.33;;;7.20;99.90;;;;;;4888664;29;20203;-72
2022/04/27 01:15:03;;;;;;;19.80;11.20;;;7.30;99.90;;;;;;4889447;29;20200;-71
2022/04/27 01:20:06;;;;;;;19.00;11.67;;;7.40;99.90;;;;;;5395126;23;20564;-75
2022/04/27 01:22:33;;;;;;;18.40;10.63;;;7.20;99.90;;;;;;4917436;29;20209;-72
2022/04/27 01:24:59;;;;;;;18.40;10.07;;;7.10;99.90;;;;;;4917958;29;20197;-73
2022/04/27 01:27:26;;;;;;;19.03;11.27;;;7.10;99.90;;;;;;4915810;29;20200;-72
2022/04/27 01:29:53;;;;;;;16.63;10.40;;;7.00;99.90;;;;;;4914441;29;20698;-73
2022/04/27 01:32:19;;;;;;;18.40;11.10;;;6.90;99.90;;;;;;4904362;29;20201;-74
2022/04/27 01:34:46;;;;;;;19.47;11.93;;;6.90;99.90;;;;;;4909632;29;20676;-73
2022/04/27 01:39:58;;;;;;;20.23;11.30;;;6.90;99.90;;;;;;4910554;29;20219;-74
2022/04/27 01:42:25;;;;;;;19.83;11.13;;;7.00;99.90;;;;;;4910970;29;20201;-72
2022/04/27 01:44:51;;;;;;;21.23;11.43;;;6.90;99.90;;;;;;4910452;29;20225;-74
2022/04/27 01:47:18;;;;;;;20.30;11.83;;;6.90;99.90;;;;;;4909881;29;20200;-72
2022/04/27 01:49:44;;;;;;;18.63;10.03;;;6.90;99.90;;;;;;4910425;29;20219;-75
2022/04/27 01:54:56;;;;;;;19.80;11.37;;;6.80;99.90;;;;;;4911091;29;20201;-72
2022/04/27 01:57:23;;;;;;;20.10;10.50;;;6.80;99.90;;;;;;4908346;29;20624;-73
2022/04/27 01:59:50;;;;;;;21.07;11.20;;;6.70;99.90;;;;;;4905776;29;20324;-72
2022/04/27 02:02:16;;;;;;;21.17;11.80;;;6.70;99.90;;;;;;4910533;29;20232;-74
2022/04/27 02:04:43;;;;;;;23.33;12.97;;;6.90;99.90;;;;;;4909113;29;20608;-72
2022/04/27 02:07:10;;;;;;;32.00;15.50;;;6.90;99.90;;;;;;4912269;29;20195;-72
2022/04/27 02:09:36;;;;;;;24.70;13.43;;;6.80;99.90;;;;;;4907111;29;20216;-75
2022/04/27 02:12:07;;;;;;;26.27;13.47;;;6.90;99.90;;;;;;4904275;29;20203;-76
2022/04/27 02:14:34;;;;;;;26.63;13.53;;;6.70;99.90;;;;;;4909370;29;20378;-72
2022/04/27 02:17:02;;;;;;;26.77;13.93;;;6.60;99.90;;;;;;4908794;29;20204;-71
2022/04/27 02:19:29;;;;;;;25.93;13.43;;;6.70;99.90;;;;;;4908710;29;20639;-72
2022/04/27 02:21:57;;;;;;;26.53;13.73;;;6.70;99.90;;;;;;4910612;29;20220;-75
2022/04/27 02:24:25;;;;;;;28.03;13.67;;;6.60;99.90;;;;;;4908341;29;20594;-72
2022/04/27 02:26:54;;;;;;;25.63;13.60;;;6.70;99.90;;;;;;4911670;29;20209;-72
2022/04/27 02:29:24;;;;;;;23.23;12.60;;;6.60;99.90;;;;;;4906956;29;20215;-72
2022/04/27 02:31:51;;;;;;;29.07;13.73;;;6.50;99.90;;;;;;4907180;29;20200;-72
2022/04/27 02:34:18;;;;;;;27.03;12.60;;;6.50;99.90;;;;;;4908895;29;20633;-74
2022/04/27 02:36:44;;;;;;;27.30;13.63;;;6.40;99.90;;;;;;4907042;29;20608;-72
2022/04/27 02:39:11;;;;;;;26.73;13.90;;;6.50;99.90;;;;;;4904053;29;20231;-75
2022/04/27 02:41:38;;;;;;;21.53;11.50;;;6.50;99.90;;;;;;4909935;29;20222;-72
2022/04/27 02:44:05;;;;;;;26.53;13.90;;;6.40;99.90;;;;;;4910433;29;20219;-74
2022/04/27 02:46:31;;;;;;;26.53;13.97;;;6.30;99.90;;;;;;4907920;29;20681;-72
2022/04/27 02:51:53;;;;;;;22.87;12.90;;;6.20;99.90;;;;;;4908679;29;20202;-75
2022/04/27 02:54:21;;;;;;;23.60;12.83;;;6.20;99.90;;;;;;4903784;29;20195;-72
2022/04/27 02:56:49;;;;;;;25.07;12.97;;;6.10;99.90;;;;;;4910660;29;20420;-72
2022/04/27 02:59:16;;;;;;;25.03;13.37;;;6.10;99.90;;;;;;4910560;29;20306;-72
2022/04/27 03:01:43;;;;;;;23.33;12.83;;;6.20;99.90;;;;;;4910980;29;20207;-73
2022/04/27 03:04:10;;;;;;;26.47;12.80;;;6.20;99.90;;;;;;4908927;29;20271;-72
2022/04/27 03:06:37;;;;;;;23.10;12.57;;;6.10;99.90;;;;;;4905949;29;20211;-74
2022/04/27 03:09:03;;;;;;;25.30;13.23;;;6.10;99.90;;;;;;4908368;29;20233;-74
2022/04/27 03:11:30;;;;;;;29.27;15.10;;;6.00;99.90;;;;;;4909028;29;20207;-74
2022/04/27 03:13:57;;;;;;;25.17;12.83;;;6.10;99.90;;;;;;4908175;29;20216;-74
2022/04/27 03:16:24;;;;;;;24.80;12.90;;;6.20;99.90;;;;;;4911208;29;20231;-72
2022/04/27 03:18:50;;;;;;;21.47;12.13;;;6.10;99.90;;;;;;4913825;29;20204;-75
2022/04/27 03:21:17;;;;;;;23.40;12.80;;;6.00;99.90;;;;;;4909532;29;20219;-73
2022/04/27 03:23:44;;;;;;;22.77;12.77;;;6.00;99.90;;;;;;4912676;29;20223;-73
2022/04/27 03:26:11;;;;;;;29.60;13.23;;;6.00;99.90;;;;;;4910631;29;20196;-72
2022/04/27 03:28:38;;;;;;;21.37;12.17;;;6.00;99.90;;;;;;4910435;29;20200;-72
2022/04/27 03:31:04;;;;;;;21.20;11.70;;;6.00;99.90;;;;;;4910782;29;20204;-72
2022/04/27 03:33:31;;;;;;;25.47;13.83;;;6.00;99.90;;;;;;4913281;29;20199;-72
2022/04/27 03:35:58;;;;;;;24.60;12.93;;;5.90;99.90;;;;;;4909114;29;20215;-72
2022/04/27 03:38:24;;;;;;;20.30;12.13;;;6.10;99.90;;;;;;4909915;29;20207;-72
2022/04/27 03:40:51;;;;;;;21.17;12.13;;;6.00;99.90;;;;;;4911633;29;20227;-75
2022/04/27 03:43:18;;;;;;;25.23;13.07;;;5.90;99.90;;;;;;4911399;29;20211;-75
2022/04/27 03:45:44;;;;;;;24.67;12.33;;;6.10;99.90;;;;;;4911230;29;20204;-72
2022/04/27 03:48:11;;;;;;;21.93;12.67;;;6.00;99.90;;;;;;4906547;29;20206;-72
2022/04/27 03:50:38;;;;;;;23.03;12.00;;;6.00;99.90;;;;;;4912959;29;20281;-73
2022/04/27 03:53:04;;;;;;;24.00;12.87;;;5.90;99.90;;;;;;4909583;29;20192;-72
2022/04/27 03:55:33;;;;;;;20.00;11.77;;;5.90;99.90;;;;;;4911389;29;20275;-72
2022/04/27 03:58:05;;;;;;;22.73;12.93;;;5.90;99.90;;;;;;4905590;29;20192;-74
2022/04/27 04:00:32;;;;;;;22.47;12.17;;;5.90;99.90;;;;;;4910653;29;20321;-72
2022/04/27 04:03:00;;;;;;;24.63;12.83;;;5.80;99.90;;;;;;4912809;29;20204;-72
2022/04/27 04:05:27;;;;;;;21.97;12.47;;;5.80;99.90;;;;;;4910442;29;20283;-73
2022/04/27 04:07:55;;;;;;;23.53;13.10;;;5.80;99.90;;;;;;4911579;29;20672;-72
2022/04/27 04:10:21;;;;;;;24.90;12.83;;;5.80;99.90;;;;;;4910026;29;20644;-72
2022/04/27 04:12:48;;;;;;;24.87;13.80;;;5.80;99.90;;;;;;4907193;29;20208;-72
2022/04/27 04:15:15;;;;;;;27.23;14.60;;;6.00;99.90;;;;;;4917700;29;20201;-75
2022/04/27 04:17:45;;;;;;;26.87;14.00;;;6.00;99.90;;;;;;4906126;29;20211;-71
2022/04/27 04:20:19;;;;;;;24.67;13.27;;;6.00;99.90;;;;;;4909266;29;20247;-75
2022/04/27 04:22:47;;;;;;;23.40;12.87;;;6.00;99.90;;;;;;4910824;29;20671;-72
2022/04/27 04:30:46;;;;;;;23.97;12.33;;;5.80;99.90;;;;;;4902981;29;20713;-73
2022/04/27 04:33:12;;;;;;;27.67;14.43;;;5.80;99.90;;;;;;4910399;29;20195;-73
2022/04/27 04:35:39;;;;;;;26.53;13.70;;;5.90;99.90;;;;;;4909795;29;20208;-73
2022/04/27 04:38:06;;;;;;;25.17;14.13;;;6.00;99.90;;;;;;4905492;29;20633;-72
2022/04/27 04:40:33;;;;;;;25.53;13.53;;;6.00;99.90;;;;;;4907510;29;20268;-72
2022/04/27 04:43:00;;;;;;;26.67;13.57;;;6.00;99.90;;;;;;4910266;29;20200;-75
2022/04/27 04:45:27;;;;;;;30.70;14.23;;;6.00;99.90;;;;;;4910347;29;20248;-74
2022/04/27 04:47:54;;;;;;;28.20;14.17;;;6.00;99.90;;;;;;4909914;29;20200;-73
2022/04/27 04:50:21;;;;;;;27.63;14.17;;;6.10;99.90;;;;;;4912458;29;20785;-72
2022/04/27 04:52:48;;;;;;;29.00;14.53;;;6.20;99.90;;;;;;4913014;29;20562;-72
2022/04/27 04:55:15;;;;;;;28.57;15.67;;;6.20;99.90;;;;;;4911942;29;20584;-72
2022/04/27 04:57:42;;;;;;;30.07;15.77;;;6.30;99.90;;;;;;4909472;29;20226;-75
2022/04/27 05:00:09;;;;;;;29.93;16.50;;;6.40;99.90;;;;;;4910002;29;20778;-71
2022/04/27 05:02:37;;;;;;;29.30;15.17;;;6.50;99.90;;;;;;4911399;29;20251;-74
2022/04/27 05:05:05;;;;;;;30.83;15.80;;;6.50;99.90;;;;;;4911117;29;20226;-72
2022/04/27 05:07:32;;;;;;;34.60;16.27;;;6.60;99.90;;;;;;4910680;29;20195;-74
2022/04/27 05:09:59;;;;;;;31.77;16.80;;;6.60;99.90;;;;;;4905714;29;20230;-74
2022/04/27 05:12:25;;;;;;;31.40;16.23;;;6.70;99.90;;;;;;4912639;29;20207;-72
2022/04/27 05:14:53;;;;;;;31.93;16.23;;;6.80;99.90;;;;;;4911370;29;20207;-73
2022/04/27 05:17:20;;;;;;;28.60;15.77;;;6.90;99.90;;;;;;4909722;29;20204;-72
2022/04/27 05:19:49;;;;;;;30.23;15.40;;;6.90;99.90;;;;;;4911659;29;20231;-71
2022/04/27 05:22:15;;;;;;;32.17;17.20;;;7.00;99.90;;;;;;4909382;29;20242;-73
2022/04/27 05:24:42;;;;;;;29.43;15.90;;;7.10;99.90;;;;;;4910602;29;20290;-72
2022/04/27 05:27:09;;;;;;;33.07;17.27;;;7.20;99.90;;;;;;4912407;29;20203;-74
2022/04/27 05:32:20;;;;;;;37.13;18.23;;;7.40;99.90;;;;;;4907435;29;20207;-75
2022/04/27 05:34:47;;;;;;;43.20;19.10;;;7.50;99.90;;;;;;4909024;29;20227;-74
2022/04/27 05:37:14;;;;;;;35.30;19.37;;;7.60;99.90;;;;;;4911539;29;20228;-72
2022/04/27 05:39:41;;;;;;;44.30;21.50;;;7.60;99.90;;;;;;4905764;29;20280;-76
2022/04/27 05:42:08;;;;;;;47.03;22.87;;;7.90;99.90;;;;;;4912379;29;20195;-71
2022/04/27 05:44:35;;;;;;;39.17;20.10;;;8.00;99.90;;;;;;4912035;29;20220;-71
2022/04/27 05:47:02;;;;;;;52.83;24.70;;;8.20;99.90;;;;;;4907525;29;20687;-72
2022/04/27 05:49:30;;;;;;;52.67;24.40;;;8.50;99.90;;;;;;4904473;29;20297;-70
2022/04/27 05:51:56;;;;;;;51.67;24.43;;;8.70;99.90;;;;;;4912835;29;20195;-73
2022/04/27 05:54:23;;;;;;;50.70;24.23;;;8.90;99.90;;;;;;4904342;29;20679;-68
2022/04/27 05:56:50;;;;;;;54.80;24.73;;;9.00;99.90;;;;;;4899684;29;20206;-74
2022/04/27 05:59:17;;;;;;;45.10;22.67;;;9.00;99.90;;;;;;4904123;29;20223;-71
2022/04/27 06:01:45;;;;;;;46.97;22.17;;;9.00;99.90;;;;;;4908349;29;20282;-71
2022/04/27 06:04:17;;;;;;;45.27;22.93;;;9.00;99.90;;;;;;4904132;29;20248;-70
2022/04/27 06:06:44;;;;;;;41.67;21.43;;;9.00;99.90;;;;;;4899016;29;20259;-71
2022/04/27 06:09:11;;;;;;;44.70;22.20;;;9.10;99.90;;;;;;4901540;29;20230;-73
2022/04/27 06:11:37;;;;;;;41.73;21.70;;;9.20;99.90;;;;;;4905742;29;20208;-72
2022/04/27 06:14:04;;;;;;;40.73;21.97;;;9.30;99.90;;;;;;4906602;29;20204;-70
2022/04/27 06:16:33;;;;;;;40.93;21.23;;;9.50;99.90;;;;;;4904910;29;20627;-73
2022/04/27 06:19:00;;;;;;;40.37;21.50;;;9.50;99.90;;;;;;4905783;29;20267;-73
2022/04/27 06:21:31;;;;;;;40.73;21.77;;;9.50;99.90;;;;;;4906882;29;20223;-71
2022/04/27 06:23:58;;;;;;;35.17;19.07;;;9.50;99.90;;;;;;4905547;29;20214;-72
2022/04/27 06:26:25;;;;;;;39.07;21.27;;;9.60;99.90;;;;;;4906270;29;20664;-75
2022/04/27 06:28:52;;;;;;;43.17;22.37;;;9.80;99.90;;;;;;4907405;29;20614;-74
2022/04/27 06:31:19;;;;;;;39.97;21.10;;;9.90;99.90;;;;;;4906376;29;20197;-73
2022/04/27 06:33:46;;;;;;;41.37;21.43;;;10.10;99.90;;;;;;4905833;29;20588;-72
2022/04/27 06:36:12;;;;;;;42.63;22.27;;;10.10;99.90;;;;;;4906259;29;20207;-71
2022/04/27 06:38:39;;;;;;;42.30;22.00;;;10.30;99.90;;;;;;4905138;29;20204;-72
2022/04/27 06:41:11;;;;;;;39.57;21.90;;;10.30;99.90;;;;;;4907324;29;20200;-73
2022/04/27 06:43:38;;;;;;;38.13;21.73;;;10.50;99.90;;;;;;4905842;29;20213;-71
2022/04/27 06:46:04;;;;;;;40.07;21.00;;;10.60;99.90;;;;;;4904906;29;20240;-74
2022/04/27 06:48:32;;;;;;;38.77;21.07;;;10.70;99.90;;;;;;4906860;29;20211;-71
2022/04/27 06:50:59;;;;;;;37.63;21.53;;;10.80;99.90;;;;;;4906506;29;20346;-72
2022/04/27 06:53:26;;;;;;;38.57;22.23;;;10.90;99.90;;;;;;4909195;29;20253;-74
2022/04/27 06:55:52;;;;;;;37.53;21.43;;;11.00;99.90;;;;;;4909926;29;20216;-74
2022/04/27 06:58:19;;;;;;;31.63;19.57;;;11.20;99.90;;;;;;4908445;29;20214;-78
2022/04/27 07:00:46;;;;;;;26.03;17.00;;;11.20;99.90;;;;;;4908928;29;20649;-77
2022/04/27 07:03:18;;;;;;;25.63;16.30;;;11.30;99.90;;;;;;4909780;29;20216;-80
2022/04/27 07:05:46;;;;;;;24.90;16.23;;;11.70;99.90;;;;;;4909477;29;20710;-78
2022/04/27 07:08:13;;;;;;;24.87;16.70;;;12.10;99.90;;;;;;4907531;29;20618;-83
2022/04/27 07:10:40;;;;;;;25.07;15.77;;;12.40;99.90;;;;;;4905685;29;20236;-80
2022/04/27 07:13:06;;;;;;;24.20;15.70;;;12.70;99.90;;;;;;4909032;29;20206;-76
2022/04/27 07:15:33;;;;;;;24.43;14.97;;;13.10;99.90;;;;;;4908722;29;20598;-74
2022/04/27 07:18:00;;;;;;;20.27;13.77;;;13.50;99.90;;;;;;4904885;29;20213;-73
2022/04/27 07:20:27;;;;;;;21.30;13.47;;;13.80;99.90;;;;;;4906614;29;20220;-73
2022/04/27 07:22:54;;;;;;;24.50;14.23;;;14.10;99.90;;;;;;4910577;29;20209;-72
2022/04/27 07:25:20;;;;;;;21.63;14.47;;;14.40;99.90;;;;;;4909167;29;20226;-71
2022/04/27 07:27:47;;;;;;;24.00;14.27;;;14.50;99.90;;;;;;4908893;29;20209;-72
2022/04/27 07:30:14;;;;;;;20.17;13.97;;;14.70;99.90;;;;;;4909329;29;20220;-74
2022/04/27 07:32:41;;;;;;;26.27;14.20;;;14.90;99.90;;;;;;4909605;29;20218;-71
2022/04/27 07:35:08;;;;;;;24.27;13.70;;;15.10;99.90;;;;;;4908433;29;20216;-72
2022/04/27 07:37:38;;;;;;;22.87;13.60;;;15.00;99.90;;;;;;4910412;29;20219;-72
2022/04/27 07:40:09;;;;;;;26.77;13.80;;;15.10;99.90;;;;;;4909288;29;21224;-70
2022/04/27 07:42:37;;;;;;;19.93;13.97;;;15.00;99.90;;;;;;4908504;29;20472;-72
2022/04/27 07:45:08;;;;;;;23.80;13.47;;;15.00;99.90;;;;;;4907564;29;20215;-71
2022/04/27 07:47:45;;;;;;;21.73;14.30;;;14.80;99.90;;;;;;4908928;29;20199;-71
2022/04/27 07:50:14;;;;;;;22.97;13.53;;;14.60;99.90;;;;;;4909523;29;20231;-75
2022/04/27 07:52:42;;;;;;;22.70;14.67;;;14.40;99.90;;;;;;4908992;29;20211;-71
2022/04/27 07:55:09;;;;;;;22.07;13.23;;;14.20;99.90;;;;;;4905075;29;20214;-73
2022/04/27 07:57:37;;;;;;;19.70;12.87;;;14.40;99.90;;;;;;4908557;29;20206;-75
2022/04/27 08:00:07;;;;;;;18.23;12.27;;;14.60;99.90;;;;;;4908231;29;20235;-73
2022/04/27 08:02:36;;;;;;;18.07;12.07;;;14.90;99.90;;;;;;4908539;29;20311;-73
2022/04/27 08:05:04;;;;;;;19.40;12.27;;;15.20;99.90;;;;;;4910914;29;20267;-72
2022/04/27 08:07:48;;;;;;;20.03;12.90;;;15.20;99.90;;;;;;4909758;29;20199;-71
2022/04/27 08:10:17;;;;;;;17.50;11.53;;;15.40;99.90;;;;;;4909651;29;20228;-71
2022/04/27 08:12:46;;;;;;;18.47;12.47;;;15.50;99.90;;;;;;4909844;29;20207;-71
2022/04/27 08:15:15;;;;;;;21.87;12.83;;;15.40;99.90;;;;;;4908500;29;20215;-72
2022/04/27 08:18:01;;;;;;;21.33;13.67;;;15.20;99.90;;;;;;4908536;29;20218;-73
2022/04/27 08:23:30;;;;;;;22.33;13.37;;;15.40;99.90;;;;;;4906025;29;20641;-73
2022/04/27 08:25:59;;;;;;;18.17;10.60;;;15.80;99.90;;;;;;4907455;29;20258;-72
2022/04/27 08:28:27;;;;;;;15.67;10.13;;;15.90;99.90;;;;;;4904877;29;20207;-70
2022/04/27 08:30:54;;;;;;;13.63;9.07;;;15.80;99.90;;;;;;4907102;29;20648;-73
2022/04/27 08:33:22;;;;;;;16.53;11.07;;;16.00;99.90;;;;;;4905438;29;20652;-70
2022/04/27 08:35:49;;;;;;;15.80;10.37;;;15.80;99.90;;;;;;4907637;29;20271;-74
2022/04/27 08:38:35;;;;;;;17.70;10.50;;;15.90;99.90;;;;;;4906277;29;20481;-70
2022/04/27 08:41:02;;;;;;;21.47;11.70;;;16.10;99.90;;;;;;4907579;29;20579;-73
2022/04/27 08:43:29;;;;;;;16.17;10.50;;;16.00;99.90;;;;;;4908028;29;20234;-70
2022/04/27 08:46:00;;;;;;;16.63;10.23;;;16.10;99.90;;;;;;4905877;29;20235;-71
2022/04/27 08:48:27;;;;;;;19.50;11.00;;;16.20;99.90;;;;;;4905262;29;20212;-72
2022/04/27 08:50:54;;;;;;;16.53;10.73;;;16.20;99.90;;;;;;4903924;29;20315;-71
2022/04/27 08:53:21;;;;;;;15.60;10.50;;;16.20;99.90;;;;;;4900176;29;20199;-71
2022/04/27 08:55:49;;;;;;;17.13;10.30;;;16.20;99.90;;;;;;4905012;29;20203;-71
2022/04/27 08:58:16;;;;;;;15.80;10.47;;;16.30;99.90;;;;;;4906281;29;20215;-74
2022/04/27 09:01:03;;;;;;;16.47;10.30;;;16.00;99.90;;;;;;4907059;29;20220;-72
2022/04/27 09:03:32;;;;;;;14.57;10.87;;;15.90;99.90;;;;;;4905801;29;20207;-73
2022/04/27 09:06:05;;;;;;;16.53;10.00;;;16.00;99.90;;;;;;4906209;29;20234;-74
2022/04/27 09:08:49;;;;;;;14.03;9.57;;;16.20;99.90;;;;;;4907361;29;20214;-70
2022/04/27 09:11:21;;;;;;;15.33;9.90;;;16.50;99.90;;;;;;4906278;29;20214;-74
2022/04/27 09:13:55;;;;;;;13.70;9.97;;;16.60;99.90;;;;;;4906188;29;20211;-73
2022/04/27 09:16:24;;;;;;;13.37;9.47;;;16.90;99.90;;;;;;4906381;29;20207;-70
2022/04/27 09:21:55;;;;;;;15.37;10.33;;;16.90;99.90;;;;;;4904151;29;20215;-70
2022/04/27 09:24:22;;;;;;;16.80;10.63;;;17.10;99.90;;;;;;4904553;29;20571;-71
2022/04/27 09:27:14;;;;;;;15.87;9.33;;;16.90;99.90;;;;;;4903894;29;20224;-73
2022/04/27 09:29:41;;;;;;;13.43;9.03;;;16.80;99.90;;;;;;4906270;29;20255;-71
2022/04/27 09:32:15;;;;;;;14.73;10.33;;;16.90;99.90;;;;;;4905120;29;20251;-70
2022/04/27 09:34:47;;;;;;;15.50;10.17;;;16.80;99.90;;;;;;4906609;29;20235;-71
2022/04/27 09:37:16;;;;;;;11.87;9.17;;;16.90;99.90;;;;;;4901726;29;20685;-71
2022/04/27 09:39:44;;;;;;;12.97;9.37;;;17.10;99.90;;;;;;4905771;29;20232;-71
2022/04/27 09:42:12;;;;;;;17.57;10.60;;;17.30;99.90;;;;;;4905009;29;20211;-72
2022/04/27 09:44:39;;;;;;;15.67;10.33;;;17.60;99.90;;;;;;4904149;29;20207;-69
2022/04/27 09:47:07;;;;;;;15.63;9.87;;;17.90;99.90;;;;;;4904568;29;20203;-71
2022/04/27 09:49:40;;;;;;;15.13;10.27;;;18.10;99.90;;;;;;4905764;29;20347;-69
2022/04/27 09:52:07;;;;;;;13.50;9.33;;;18.50;99.90;;;;;;4905759;29;20207;-70
2022/04/27 09:54:36;;;;;;;15.93;9.63;;;18.80;99.90;;;;;;4903737;29;21164;-71
2022/04/27 09:57:05;;;;;;;14.73;8.97;;;18.80;99.90;;;;;;4905009;29;20672;-74
2022/04/27 09:59:35;;;;;;;16.73;11.07;;;18.60;99.90;;;;;;4903075;29;20246;-70
2022/04/27 10:02:08;;;;;;;14.47;9.60;;;18.60;99.90;;;;;;4905180;29;20227;-71
2022/04/27 10:04:37;;;;;;;14.10;9.50;;;18.40;99.90;;;;;;4901751;29;20686;-72
2022/04/27 10:07:07;;;;;;;14.63;9.50;;;18.50;99.90;;;;;;4903017;29;20306;-71
2022/04/27 10:09:34;;;;;;;13.97;9.63;;;18.60;99.90;;;;;;4907582;29;20219;-70
2022/04/27 10:12:11;;;;;;;14.40;10.13;;;18.30;99.90;;;;;;4905690;29;20309;-71
2022/04/27 10:14:38;;;;;;;18.60;10.50;;;18.20;99.90;;;;;;4903041;29;20211;-74
2022/04/27 10:17:05;;;;;;;18.27;10.10;;;18.10;99.90;;;;;;4906409;29;20603;-74
2022/04/27 10:19:32;;;;;;;12.93;9.00;;;18.00;99.90;;;;;;4907075;29;20226;-75
2022/04/27 10:22:01;;;;;;;16.33;9.10;;;18.10;99.90;;;;;;4906832;29;20419;-73
2022/04/27 10:24:34;;;;;;;15.80;10.10;;;18.30;99.90;;;;;;4904957;29;20196;-72
2022/04/27 10:27:34;;;;;;;14.30;9.13;;;18.40;99.90;;;;;;4910373;29;20275;-74
2022/04/27 10:30:04;;;;;;;14.47;9.70;;;18.70;99.90;;;;;;4911589;29;20227;-72
2022/04/27 10:32:37;;;;;;;13.50;9.07;;;18.80;99.90;;;;;;4913183;29;20597;-71
2022/04/27 10:35:17;;;;;;;15.35;9.73;;;18.90;99.90;;;;;;4910453;29;20200;-73
2022/04/27 10:37:47;;;;;;;12.63;9.17;;;19.20;99.90;;;;;;4911071;29;20321;-73
2022/04/27 10:40:29;;;;;;;15.33;9.30;;;19.30;99.90;;;;;;4911079;29;20218;-73
2022/04/27 10:43:06;;;;;;;13.30;8.87;;;19.40;99.90;;;;;;4910343;29;20249;-71
2022/04/27 10:45:54;;;;;;;11.50;8.45;;;19.40;99.90;;;;;;4911091;29;20219;-72
2022/04/27 10:48:29;;;;;;;12.02;8.27;;;19.40;99.90;;;;;;4910606;29;20196;-72
2022/04/27 10:50:57;;;;;;;12.90;8.48;;;19.60;99.90;;;;;;4910343;29;20937;-73
2022/04/27 10:53:26;;;;;;;11.83;8.20;;;19.80;99.90;;;;;;4910895;29;20675;-73
2022/04/27 10:55:59;;;;;;;13.43;8.52;;;19.70;99.90;;;;;;4910210;29;20199;-72
2022/04/27 10:58:34;;;;;;;12.90;8.88;;;19.80;99.90;;;;;;4907337;29;20215;-72
2022/04/27 11:01:05;;;;;;;11.63;8.23;;;19.90;99.90;;;;;;4908780;29;20231;-72
2022/04/27 11:03:36;;;;;;;9.63;6.25;;;19.90;99.90;;;;;;4909877;29;20282;-71
2022/04/27 11:06:04;;;;;;;11.90;5.65;;;20.00;99.90;;;;;;4909799;29;20262;-71
2022/04/27 11:09:02;;;;;;;9.13;6.22;;;20.30;99.90;;;;;;4910730;29;20195;-71
2022/04/27 11:11:30;;;;;;;11.80;6.05;;;20.40;99.90;;;;;;4907779;29;20767;-72
2022/04/27 11:14:04;;;;;;;7.18;5.18;;;20.10;99.90;;;;;;4909832;29;20750;-72
2022/04/27 11:16:49;;;;;;;8.05;5.80;;;20.20;99.90;;;;;;4909402;29;20298;-72
2022/04/27 11:19:16;;;;;;;8.27;5.65;;;20.30;99.90;;;;;;4909800;29;20227;-71
2022/04/27 11:21:43;;;;;;;9.93;5.97;;;20.40;99.90;;;;;;4905818;29;20211;-71
2022/04/27 11:24:14;;;;;;;9.18;6.07;;;20.40;99.90;;;;;;4909179;29;20263;-70
2022/04/27 11:26:44;;;;;;;9.18;5.65;;;20.50;99.90;;;;;;4908925;29;20231;-73
2022/04/27 11:29:13;;;;;;;8.02;5.53;;;20.60;99.90;;;;;;4909694;29;20222;-74
2022/04/27 11:31:42;;;;;;;8.38;5.40;;;20.40;99.90;;;;;;4909486;29;20204;-71
2022/04/27 11:34:29;;;;;;;8.23;4.93;;;20.30;99.90;;;;;;4909858;29;20251;-71
2022/04/27 11:37:19;;;;;;;9.30;5.70;;;20.40;99.90;;;;;;4907832;29;20715;-72
2022/04/27 11:39:47;;;;;;;6.90;5.43;;;20.50;99.90;;;;;;4910336;29;20234;-74
2022/04/27 11:42:16;;;;;;;7.18;5.07;;;20.40;99.90;;;;;;4910203;29;20263;-72
2022/04/27 11:44:51;;;;;;;8.05;4.90;;;20.40;99.90;;;;;;4906490;29;20607;-74
2022/04/27 11:47:28;;;;;;;7.97;4.97;;;20.50;99.90;;;;;;4909839;29;20301;-75
2022/04/27 11:50:04;;;;;;;7.57;4.82;;;20.60;99.90;;;;;;4908484;29;20713;-72
2022/04/27 11:52:31;;;;;;;6.63;4.80;;;20.60;99.90;;;;;;4909984;29;20495;-71
2022/04/27 11:55:07;;;;;;;6.80;4.45;;;20.50;99.90;;;;;;4909428;29;20211;-71
2022/04/27 11:57:33;;;;;;;6.60;4.93;;;20.60;99.90;;;;;;4908210;29;20203;-73
2022/04/27 12:00:02;;;;;;;8.20;5.05;;;20.50;99.90;;;;;;4909381;29;20220;-71
2022/04/27 12:02:33;;;;;;;5.72;4.55;;;20.60;99.90;;;;;;4909516;29;20203;-74
2022/04/27 12:05:01;;;;;;;5.75;3.65;;;20.50;99.90;;;;;;4908659;29;20285;-71
2022/04/27 12:07:37;;;;;;;4.13;2.80;;;20.50;99.90;;;;;;4907756;29;20311;-72
2022/04/27 12:10:14;;;;;;;4.53;3.00;;;20.50;99.90;;;;;;4906646;29;20226;-72
2022/04/27 12:12:42;;;;;;;4.93;3.45;;;20.60;99.90;;;;;;4908241;29;20210;-72
2022/04/27 12:15:14;;;;;;;6.90;4.00;;;20.70;99.90;;;;;;4910019;29;20204;-71
2022/04/27 12:17:55;;;;;;;7.00;4.38;;;20.80;99.90;;;;;;4909561;29;20219;-72
2022/04/27 12:20:37;;;;;;;6.88;4.45;;;20.90;99.90;;;;;;4906651;29;20809;-75
2022/04/27 12:23:09;;;;;;;4.43;3.40;;;20.90;99.90;;;;;;4908525;29;20307;-71
2022/04/27 12:25:42;;;;;;;7.50;3.53;;;20.70;99.90;;;;;;4909496;29;20208;-74
2022/04/27 12:28:15;;;;;;;4.50;2.90;;;20.70;99.90;;;;;;4909123;29;20208;-71
2022/04/27 12:30:48;;;;;;;4.47;3.13;;;20.80;99.90;;;;;;4907457;29;20235;-71
2022/04/27 12:33:17;;;;;;;4.78;2.90;;;20.80;99.90;;;;;;4907940;29;20810;-72
2022/04/27 12:38:31;;;;;;;5.55;3.90;;;20.50;99.90;;;;;;4908080;29;20259;-71
2022/04/27 12:40:59;;;;;;;6.72;4.00;;;20.40;99.90;;;;;;4908677;29;20230;-70
2022/04/27 12:43:27;;;;;;;7.20;3.78;;;20.60;99.90;;;;;;4906770;29;20272;-70
2022/04/27 12:46:11;;;;;;;5.35;3.70;;;20.20;99.90;;;;;;4907065;29;20230;-72
2022/04/27 12:48:38;;;;;;;5.55;3.63;;;20.00;99.90;;;;;;4908832;29;20230;-70
2022/04/27 12:51:07;;;;;;;5.88;3.70;;;20.10;99.90;;;;;;4907571;29;20200;-73
2022/04/27 12:53:35;;;;;;;5.43;3.53;;;20.20;99.90;;;;;;4907113;29;20207;-75
2022/04/27 12:56:15;;;;;;;8.55;3.40;;;20.40;99.90;;;;;;4905309;29;20250;-73
2022/04/27 12:58:42;;;;;;;3.75;2.90;;;20.70;99.90;;;;;;4908344;29;20204;-73
2022/04/27 13:01:27;;;;;;;4.15;3.13;;;20.80;99.90;;;;;;4906576;29;20703;-72
2022/04/27 13:03:54;;;;;;;5.30;3.80;;;20.90;99.90;;;;;;4905498;29;20567;-73
2022/04/27 13:06:22;;;;;;;5.15;3.28;;;20.90;99.90;;;;;;4907908;29;20227;-73
2022/04/27 13:08:50;;;;;;;3.65;2.88;;;21.00;99.90;;;;;;4907030;29;20213;-74
2022/04/27 13:14:08;;;;;;;4.20;3.17;;;21.30;99.90;;;;;;5112232;28;20239;-65
2022/04/27 13:16:35;;;;;;;5.82;3.40;;;21.30;99.90;;;;;;5114048;28;20399;-65